Time;durP1;ratioP1;P1;durP2;ratioP2;P2;SDS_P1;SDS_P2;PMS_P1;PMS_P2;Temp;Humidity;BMP_temperature;BMP_pressure;BME280_temperature;BME280_humidity;BME280_pressure;Samples;Min_cycle;Max_cycle;Signal;HPM_P1;HPM_P2
2022/07/19 00:01:09;;;;;;;;;;;23.50;71.00;;;;;;5087195;28;20363;-57
2022/07/19 00:03:37;;;;;;;;;;;23.60;70.50;;;;;;5082622;28;19939;-57
2022/07/19 00:06:04;;;;;;;;;;;23.70;70.00;;;;;;5070304;28;19924;-57
2022/07/19 00:08:32;;;;;;;;;;;23.80;69.60;;;;;;5074854;28;19924;-56
2022/07/19 00:10:59;;;;;;;;;;;24.00;69.10;;;;;;5082782;28;19943;-57
2022/07/19 00:13:27;;;;;;;;;;;24.10;68.70;;;;;;5081163;28;19947;-56
2022/07/19 00:15:55;;;;;;;;;;;24.10;68.40;;;;;;5085313;28;19931;-56
2022/07/19 00:18:23;;;;;;;;;;;24.20;68.10;;;;;;5084599;28;19924;-57
2022/07/19 00:20:50;;;;;;;;;;;24.30;67.90;;;;;;5067540;28;19924;-56
2022/07/19 00:23:18;;;;;;;;;;;24.30;67.70;;;;;;5071542;28;20406;-57
2022/07/19 00:25:45;;;;;;;;;;;24.40;67.60;;;;;;5076423;28;19932;-57
2022/07/19 00:28:13;;;;;;;;;;;24.40;67.60;;;;;;5088304;28;19924;-56
2022/07/19 00:30:41;;;;;;;;;;;24.40;67.50;;;;;;5075954;28;19928;-57
2022/07/19 00:33:08;;;;;;;;;;;24.30;67.40;;;;;;5081447;28;19931;-57
2022/07/19 00:35:36;;;;;;;;;;;24.30;67.50;;;;;;5068490;28;19924;-56
2022/07/19 00:38:11;;;;;;;;;;;24.30;67.50;;;;;;5071688;28;19924;-57
2022/07/19 00:40:40;;;;;;;;;;;24.30;67.70;;;;;;5080094;28;19924;-57
2022/07/19 00:43:09;;;;;;;;;;;24.20;67.80;;;;;;5088373;28;19924;-57
2022/07/19 00:45:37;;;;;;;;;;;24.20;67.90;;;;;;5070554;28;19928;-57
2022/07/19 00:48:05;;;;;;;;;;;24.10;68.00;;;;;;5067924;28;20413;-56
2022/07/19 00:50:32;;;;;;;;;;;24.10;68.00;;;;;;5090439;28;19931;-56
2022/07/19 00:53:01;;;;;;;;;;;24.00;68.00;;;;;;5085854;28;19925;-57
2022/07/19 00:55:29;;;;;;;;;;;24.00;68.00;;;;;;5080224;28;20018;-56
2022/07/19 00:57:57;;;;;;;;;;;24.00;68.20;;;;;;5074131;28;19924;-56
2022/07/19 01:00:26;;;;;;;;;;;23.90;68.60;;;;;;5072225;28;19924;-57
2022/07/19 01:02:54;;;;;;;;;;;23.80;68.80;;;;;;5072047;28;19928;-56
2022/07/19 01:05:21;;;;;;;;;;;23.60;69.10;;;;;;5077486;28;20229;-56
2022/07/19 01:07:49;;;;;;;;;;;23.50;69.40;;;;;;5071337;28;20291;-56
2022/07/19 01:10:16;;;;;;;;;;;23.40;69.70;;;;;;5088164;28;19924;-56
2022/07/19 01:12:44;;;;;;;;;;;23.20;70.20;;;;;;5076437;28;19924;-56
2022/07/19 01:15:13;;;;;;;;;;;23.10;70.60;;;;;;5110279;28;19923;-56
2022/07/19 01:17:40;;;;;;;;;;;23.00;70.80;;;;;;5079092;28;19925;-56
2022/07/19 01:20:08;;;;;;;;;;;22.90;71.30;;;;;;5074096;28;19924;-57
2022/07/19 01:22:36;;;;;;;;;;;22.80;71.50;;;;;;5082485;28;20312;-56
2022/07/19 01:25:04;;;;;;;;;;;22.70;71.80;;;;;;5096996;28;19924;-56
2022/07/19 01:27:36;;;;;;;;;;;22.60;72.10;;;;;;5100646;28;19924;-55
2022/07/19 01:30:09;;;;;;;;;;;22.50;72.30;;;;;;5089585;28;19924;-57
2022/07/19 01:32:36;;;;;;;;;;;22.40;72.60;;;;;;5076425;28;19925;-57
2022/07/19 01:35:05;;;;;;;;;;;22.30;72.90;;;;;;5079105;28;19939;-57
2022/07/19 01:37:32;;;;;;;;;;;22.20;73.20;;;;;;5086379;28;19936;-56
2022/07/19 01:40:00;;;;;;;;;;;22.10;73.50;;;;;;5081565;28;19928;-57
2022/07/19 01:42:27;;;;;;;;;;;22.10;73.80;;;;;;5092059;28;19939;-58
2022/07/19 01:44:55;;;;;;;;;;;22.00;74.30;;;;;;5091193;28;19931;-57
2022/07/19 01:47:23;;;;;;;;;;;21.90;74.40;;;;;;5089361;28;21282;-57
2022/07/19 01:49:50;;;;;;;;;;;21.80;74.70;;;;;;5073889;28;19925;-57
2022/07/19 01:52:18;;;;;;;;;;;21.70;75.10;;;;;;5079405;28;20540;-57
2022/07/19 01:54:45;;;;;;;;;;;21.60;75.30;;;;;;5072921;28;19947;-56
2022/07/19 01:57:13;;;;;;;;;;;21.60;75.60;;;;;;5092169;28;19924;-57
2022/07/19 01:59:40;;;;;;;;;;;21.60;75.90;;;;;;5088439;28;19923;-56
2022/07/19 02:02:08;;;;;;;;;;;21.50;76.00;;;;;;5095151;28;19931;-57
2022/07/19 02:04:35;;;;;;;;;;;21.50;76.30;;;;;;5092689;28;20291;-57
2022/07/19 02:07:03;;;;;;;;;;;21.40;76.30;;;;;;5092747;28;19936;-56
2022/07/19 02:09:31;;;;;;;;;;;21.40;76.40;;;;;;5080799;28;19924;-56
2022/07/19 02:11:59;;;;;;;;;;;21.40;76.60;;;;;;5081866;28;19931;-56
2022/07/19 02:14:26;;;;;;;;;;;21.30;76.90;;;;;;5073528;28;19931;-55
2022/07/19 02:16:53;;;;;;;;;;;21.30;76.90;;;;;;5072234;28;19924;-56
2022/07/19 02:19:21;;;;;;;;;;;21.30;77.20;;;;;;5073199;28;19931;-55
2022/07/19 02:21:49;;;;;;;;;;;21.20;77.20;;;;;;5084556;28;19924;-56
2022/07/19 02:24:16;;;;;;;;;;;21.20;77.40;;;;;;5093917;28;19931;-56
2022/07/19 02:26:44;;;;;;;;;;;21.20;77.60;;;;;;5105441;28;19931;-56
2022/07/19 02:29:11;;;;;;;;;;;21.20;77.70;;;;;;5074394;28;19924;-56
2022/07/19 02:31:38;;;;;;;;;;;21.10;78.00;;;;;;5082678;28;19931;-56
2022/07/19 02:34:06;;;;;;;;;;;21.10;78.10;;;;;;5092340;28;19925;-56
2022/07/19 02:36:33;;;;;;;;;;;21.10;78.50;;;;;;5089531;28;19924;-55
2022/07/19 02:39:01;;;;;;;;;;;21.00;78.60;;;;;;5093469;28;19923;-56
2022/07/19 02:41:28;;;;;;;;;;;21.00;78.70;;;;;;5082439;28;20351;-56
2022/07/19 02:43:56;;;;;;;;;;;21.00;79.00;;;;;;5090424;28;19924;-56
2022/07/19 02:46:23;;;;;;;;;;;20.90;78.90;;;;;;5088348;28;19924;-56
2022/07/19 02:48:51;;;;;;;;;;;20.90;79.40;;;;;;5093296;28;20406;-56
2022/07/19 02:51:19;;;;;;;;;;;20.90;79.40;;;;;;5085366;28;19924;-56
2022/07/19 02:53:47;;;;;;;;;;;20.80;79.40;;;;;;5072548;28;19932;-56
2022/07/19 02:56:14;;;;;;;;;;;20.80;79.60;;;;;;5101273;28;20477;-56
2022/07/19 02:58:42;;;;;;;;;;;20.80;79.60;;;;;;5096127;28;19931;-56
2022/07/19 03:01:09;;;;;;;;;;;20.70;79.60;;;;;;5071971;28;19925;-56
2022/07/19 03:03:50;;;;;;;;;;;20.70;80.00;;;;;;5075767;28;19931;-55
2022/07/19 03:06:18;;;;;;;;;;;20.70;80.00;;;;;;5083831;28;19924;-54
2022/07/19 03:08:46;;;;;;;;;;;20.60;80.10;;;;;;5092867;28;19924;-56
2022/07/19 03:11:14;;;;;;;;;;;20.60;80.50;;;;;;5087853;28;19924;-55
2022/07/19 03:13:41;;;;;;;;;;;20.50;80.70;;;;;;5074136;28;20327;-55
2022/07/19 03:16:09;;;;;;;;;;;20.50;80.90;;;;;;5078513;28;19924;-55
2022/07/19 03:18:37;;;;;;;;;;;20.40;81.10;;;;;;5090972;28;19951;-55
2022/07/19 03:21:04;;;;;;;;;;;20.40;81.10;;;;;;5087493;28;19958;-55
2022/07/19 03:23:32;;;;;;;;;;;20.40;81.30;;;;;;5080433;28;19924;-56
2022/07/19 03:26:00;;;;;;;;;;;20.30;81.50;;;;;;5070931;28;20418;-55
2022/07/19 03:28:28;;;;;;;;;;;20.30;81.50;;;;;;5083526;28;20390;-55
2022/07/19 03:30:55;;;;;;;;;;;20.30;81.80;;;;;;5091771;28;20380;-55
2022/07/19 03:33:23;;;;;;;;;;;20.30;81.90;;;;;;5091402;28;19924;-54
2022/07/19 03:35:50;;;;;;;;;;;20.20;82.00;;;;;;5092419;28;19925;-54
2022/07/19 03:38:17;;;;;;;;;;;20.20;82.20;;;;;;5090256;28;20364;-55
2022/07/19 03:40:47;;;;;;;;;;;20.20;82.50;;;;;;5092295;28;19924;-55
2022/07/19 03:43:16;;;;;;;;;;;20.10;82.70;;;;;;5085359;28;19924;-55
2022/07/19 03:45:44;;;;;;;;;;;20.10;83.00;;;;;;5091423;28;19924;-54
2022/07/19 03:48:11;;;;;;;;;;;20.10;83.10;;;;;;5089820;28;19931;-54
2022/07/19 03:50:39;;;;;;;;;;;20.00;83.80;;;;;;5087495;28;19924;-55
2022/07/19 03:53:06;;;;;;;;;;;20.00;83.40;;;;;;5087671;28;19932;-55
2022/07/19 03:55:34;;;;;;;;;;;19.90;83.60;;;;;;5094145;28;19924;-54
2022/07/19 03:58:01;;;;;;;;;;;19.90;83.90;;;;;;5083242;28;19924;-55
2022/07/19 04:00:29;;;;;;;;;;;19.90;84.20;;;;;;5078942;28;19924;-55
2022/07/19 04:02:56;;;;;;;;;;;19.80;84.40;;;;;;5091774;28;19931;-56
2022/07/19 04:05:24;;;;;;;;;;;19.70;84.60;;;;;;5089996;28;19924;-55
2022/07/19 04:07:52;;;;;;;;;;;19.70;84.90;;;;;;5088326;28;19931;-55
2022/07/19 04:10:19;;;;;;;;;;;19.70;85.20;;;;;;5092082;28;19924;-56
2022/07/19 04:12:46;;;;;;;;;;;19.60;85.80;;;;;;5089479;28;19924;-56
2022/07/19 04:15:14;;;;;;;;;;;19.60;86.00;;;;;;5086986;28;19931;-56
2022/07/19 04:17:41;;;;;;;;;;;19.60;86.20;;;;;;5085632;28;19932;-56
2022/07/19 04:20:09;;;;;;;;;;;19.60;86.40;;;;;;5073074;28;19925;-56
2022/07/19 04:22:37;;;;;;;;;;;19.50;86.40;;;;;;5071959;28;19924;-55
2022/07/19 04:25:05;;;;;;;;;;;19.50;86.50;;;;;;5076656;28;19924;-56
2022/07/19 04:27:32;;;;;;;;;;;19.50;86.70;;;;;;5115329;28;20299;-56
2022/07/19 04:30:00;;;;;;;;;;;19.50;87.10;;;;;;5100650;28;19924;-55
2022/07/19 04:32:28;;;;;;;;;;;19.50;87.20;;;;;;5093418;28;19947;-56
2022/07/19 04:34:56;;;;;;;;;;;19.40;87.30;;;;;;5095909;28;19924;-56
2022/07/19 04:37:23;;;;;;;;;;;19.50;87.50;;;;;;5092591;28;19931;-56
2022/07/19 04:39:51;;;;;;;;;;;19.40;87.50;;;;;;5074833;28;20392;-55
2022/07/19 04:42:18;;;;;;;;;;;19.40;87.70;;;;;;5075703;28;20382;-56
2022/07/19 04:44:46;;;;;;;;;;;19.40;87.90;;;;;;5091068;28;20391;-56
2022/07/19 04:47:14;;;;;;;;;;;19.40;88.10;;;;;;5091420;28;19935;-56
2022/07/19 04:49:41;;;;;;;;;;;19.40;88.20;;;;;;5074171;28;20141;-56
2022/07/19 04:52:09;;;;;;;;;;;19.40;88.30;;;;;;5073052;28;19924;-55
2022/07/19 04:54:36;;;;;;;;;;;19.40;88.40;;;;;;5080100;28;19931;-56
2022/07/19 04:57:04;;;;;;;;;;;19.40;88.50;;;;;;5075200;28;20775;-55
2022/07/19 04:59:31;;;;;;;;;;;19.40;88.60;;;;;;5074719;28;20438;-56
2022/07/19 05:01:59;;;;;;;;;;;19.40;88.80;;;;;;5072614;28;19928;-56
2022/07/19 05:04:26;;;;;;;;;;;19.40;88.80;;;;;;5071822;28;19928;-56
2022/07/19 05:06:56;;;;;;;;;;;19.50;89.00;;;;;;5077042;28;19923;-56
2022/07/19 05:09:25;;;;;;;;;;;19.40;89.10;;;;;;5071999;28;19924;-56
2022/07/19 05:11:53;;;;;;;;;;;19.50;89.20;;;;;;5073329;28;20310;-56
2022/07/19 05:14:21;;;;;;;;;;;19.50;89.20;;;;;;5075529;28;20003;-56
2022/07/19 05:16:51;;;;;;;;;;;19.50;89.20;;;;;;5080035;28;19928;-56
2022/07/19 05:19:19;;;;;;;;;;;19.60;89.40;;;;;;5094896;28;19936;-56
2022/07/19 05:21:46;;;;;;;;;;;19.70;89.40;;;;;;5081599;28;19928;-56
2022/07/19 05:24:14;;;;;;;;;;;19.70;89.30;;;;;;5088936;28;19928;-56
2022/07/19 05:26:42;;;;;;;;;;;19.80;89.20;;;;;;5105063;28;19931;-56
2022/07/19 05:29:09;;;;;;;;;;;19.90;89.10;;;;;;5075683;28;19935;-56
2022/07/19 05:31:37;;;;;;;;;;;20.00;89.10;;;;;;5070676;28;19928;-56
2022/07/19 05:34:05;;;;;;;;;;;20.00;89.00;;;;;;5086549;28;19924;-57
2022/07/19 05:36:33;;;;;;;;;;;20.20;89.00;;;;;;5079858;28;19947;-56
2022/07/19 05:39:00;;;;;;;;;;;20.20;88.90;;;;;;5079714;28;19925;-57
2022/07/19 05:41:28;;;;;;;;;;;20.30;88.80;;;;;;5074409;28;19932;-56
2022/07/19 05:43:55;;;;;;;;;;;20.30;88.80;;;;;;5088571;28;19928;-56
2022/07/19 05:46:23;;;;;;;;;;;20.40;88.80;;;;;;5086445;28;19935;-56
2022/07/19 05:48:50;;;;;;;;;;;20.50;88.90;;;;;;5097002;28;19924;-57
2022/07/19 05:51:18;;;;;;;;;;;20.60;88.90;;;;;;5083893;28;19924;-56
2022/07/19 05:53:45;;;;;;;;;;;20.60;88.80;;;;;;5092513;28;20295;-56
2022/07/19 05:56:13;;;;;;;;;;;20.70;88.80;;;;;;5086595;28;20303;-56
2022/07/19 05:58:40;;;;;;;;;;;20.70;88.70;;;;;;5078859;28;19931;-56
2022/07/19 06:01:22;;;;;;;;;;;20.80;88.60;;;;;;5067992;28;19925;-56
2022/07/19 06:03:51;;;;;;;;;;;20.90;88.50;;;;;;5085234;28;19924;-57
2022/07/19 06:06:27;;;;;;;;;;;21.00;88.40;;;;;;5081140;28;20402;-56
2022/07/19 06:08:55;;;;;;;;;;;21.20;88.40;;;;;;5088510;28;19935;-56
2022/07/19 06:11:23;;;;;;;;;;;21.30;88.30;;;;;;5085767;28;19929;-57
2022/07/19 06:13:51;;;;;;;;;;;21.30;88.10;;;;;;5083299;28;19928;-62
2022/07/19 06:16:19;;;;;;;;;;;21.50;88.10;;;;;;5083935;28;19936;-57
2022/07/19 06:18:47;;;;;;;;;;;21.60;87.90;;;;;;5082296;28;19932;-56
2022/07/19 06:21:17;;;;;;;;;;;21.80;87.60;;;;;;5086615;28;19924;-56
2022/07/19 06:23:45;;;;;;;;;;;21.90;87.20;;;;;;5088189;28;19932;-56
2022/07/19 06:26:13;;;;;;;;;;;22.10;86.90;;;;;;5089370;28;19928;-56
2022/07/19 06:28:41;;;;;;;;;;;22.30;86.10;;;;;;5076724;28;19925;-57
2022/07/19 06:31:09;;;;;;;;;;;22.50;84.10;;;;;;5073891;28;19924;-58
2022/07/19 06:33:45;;;;;;;;;;;22.80;83.50;;;;;;5090409;28;19931;-58
2022/07/19 06:36:13;;;;;;;;;;;23.00;82.40;;;;;;5095502;27;19924;-58
2022/07/19 06:38:43;;;;;;;;;;;23.20;80.10;;;;;;5078938;28;19924;-58
2022/07/19 06:41:12;;;;;;;;;;;23.40;80.10;;;;;;5080577;28;19932;-57
2022/07/19 06:43:40;;;;;;;;;;;23.60;78.90;;;;;;5076939;28;20094;-57
2022/07/19 06:46:08;;;;;;;;;;;23.80;75.80;;;;;;5065477;28;19931;-57
2022/07/19 06:48:38;;;;;;;;;;;24.00;77.20;;;;;;5067048;28;19935;-58
2022/07/19 06:51:07;;;;;;;;;;;24.20;76.50;;;;;;5067232;28;19929;-58
2022/07/19 06:53:35;;;;;;;;;;;24.30;77.00;;;;;;5077039;28;20227;-57
2022/07/19 06:56:03;;;;;;;;;;;24.40;77.10;;;;;;5070317;28;20327;-58
2022/07/19 06:58:31;;;;;;;;;;;24.50;75.80;;;;;;5078157;28;19928;-57
2022/07/19 07:01:07;;;;;;;;;;;24.70;74.80;;;;;;5085836;28;20492;-58
2022/07/19 07:03:35;;;;;;;;;;;24.80;75.40;;;;;;5082399;28;19932;-58
2022/07/19 07:06:03;;;;;;;;;;;24.90;75.60;;;;;;5068109;28;19935;-58
2022/07/19 07:08:31;;;;;;;;;;;24.90;75.00;;;;;;5091485;28;20403;-57
2022/07/19 07:10:58;;;;;;;;;;;25.00;73.40;;;;;;5081402;28;19935;-58
2022/07/19 07:13:26;;;;;;;;;;;25.10;73.80;;;;;;5100662;28;19930;-58
2022/07/19 07:15:53;;;;;;;;;;;25.20;73.90;;;;;;5073556;28;19932;-58
2022/07/19 07:18:21;;;;;;;;;;;25.30;73.30;;;;;;5088463;28;19924;-58
2022/07/19 07:20:48;;;;;;;;;;;25.30;73.90;;;;;;5078953;28;20099;-57
2022/07/19 07:23:16;;;;;;;;;;;25.40;73.80;;;;;;5071654;28;20383;-57
2022/07/19 07:25:45;;;;;;;;;;;25.50;72.70;;;;;;5075954;28;19932;-57
2022/07/19 07:28:13;;;;;;;;;;;25.60;72.70;;;;;;5076351;28;19928;-57
2022/07/19 07:30:41;;;;;;;;;;;25.70;71.40;;;;;;5079538;28;20273;-57
2022/07/19 07:33:08;;;;;;;;;;;25.80;71.50;;;;;;5069552;28;19924;-58
2022/07/19 07:35:36;;;;;;;;;;;26.00;71.00;;;;;;5075878;28;19928;-57
2022/07/19 07:38:03;;;;;;;;;;;26.10;71.20;;;;;;5076972;28;20555;-59
2022/07/19 07:40:30;;;;;;;;;;;26.20;71.30;;;;;;5067061;28;20367;-56
2022/07/19 07:42:58;;;;;;;;;;;26.40;71.00;;;;;;5074204;28;20430;-57
2022/07/19 07:45:26;;;;;;;;;;;26.40;69.80;;;;;;5072135;28;19938;-56
2022/07/19 07:47:53;;;;;;;;;;;26.50;68.00;;;;;;5075848;28;19924;-58
2022/07/19 07:50:21;;;;;;;;;;;26.60;67.40;;;;;;5068574;28;19932;-57
2022/07/19 07:52:48;;;;;;;;;;;26.70;66.00;;;;;;5069879;28;19925;-57
2022/07/19 07:55:16;;;;;;;;;;;26.90;66.90;;;;;;5070731;28;19935;-56
2022/07/19 07:57:55;;;;;;;;;;;26.90;65.40;;;;;;5077864;28;19924;-57
2022/07/19 08:00:23;;;;;;;;;;;27.00;66.20;;;;;;5073158;28;19940;-58
2022/07/19 08:02:50;;;;;;;;;;;27.10;66.50;;;;;;5070618;28;19924;-58
2022/07/19 08:05:21;;;;;;;;;;;27.10;66.10;;;;;;5083238;28;19998;-57
2022/07/19 08:07:50;;;;;;;;;;;27.10;66.50;;;;;;5067595;28;19924;-58
2022/07/19 08:10:20;;;;;;;;;;;27.20;64.90;;;;;;5077530;28;20308;-58
2022/07/19 08:12:48;;;;;;;;;;;27.30;65.10;;;;;;5091781;28;19924;-56
2022/07/19 08:15:16;;;;;;;;;;;27.30;65.30;;;;;;5077966;28;20592;-56
2022/07/19 08:17:45;;;;;;;;;;;27.40;66.00;;;;;;5080459;28;19924;-57
2022/07/19 08:20:12;;;;;;;;;;;27.50;65.40;;;;;;5075778;28;20603;-57
2022/07/19 08:22:40;;;;;;;;;;;27.60;65.00;;;;;;5083566;28;19931;-57
2022/07/19 08:25:07;;;;;;;;;;;27.80;64.00;;;;;;5071385;28;19928;-57
2022/07/19 08:27:35;;;;;;;;;;;27.90;64.20;;;;;;5071948;28;19928;-56
2022/07/19 08:30:03;;;;;;;;;;;28.00;64.00;;;;;;5076737;28;19928;-56
2022/07/19 08:32:36;;;;;;;;;;;28.20;62.60;;;;;;5069555;28;19928;-56
2022/07/19 08:35:04;;;;;;;;;;;28.30;62.70;;;;;;5067976;28;19925;-56
2022/07/19 08:37:32;;;;;;;;;;;28.40;62.00;;;;;;5067404;28;19947;-57
2022/07/19 08:40:00;;;;;;;;;;;28.50;63.10;;;;;;5070140;28;19943;-56
2022/07/19 08:42:27;;;;;;;;;;;28.60;60.60;;;;;;5081421;28;19924;-57
2022/07/19 08:45:04;;;;;;;;;;;28.70;61.00;;;;;;5083378;28;21496;-56
2022/07/19 08:47:32;;;;;;;;;;;28.90;60.20;;;;;;5070917;28;19931;-56
2022/07/19 08:50:00;;;;;;;;;;;28.90;60.00;;;;;;5085700;28;20151;-57
2022/07/19 08:52:27;;;;;;;;;;;29.10;59.50;;;;;;5090384;28;19924;-58
2022/07/19 08:54:56;;;;;;;;;;;29.20;60.00;;;;;;5085061;28;22195;-57
2022/07/19 09:00:11;;;;;;;;;;;29.40;60.30;;;;;;5078043;28;19924;-58
2022/07/19 09:02:53;;;;;;;;;;;29.50;60.20;;;;;;5080144;28;19938;-57
2022/07/19 09:05:21;;;;;;;;;;;29.60;59.40;;;;;;5099160;28;20603;-57
2022/07/19 09:08:07;;;;;;;;;;;29.70;59.30;;;;;;5074507;28;19946;-57
2022/07/19 09:10:39;;;;;;;;;;;29.70;59.30;;;;;;5079988;28;19939;-57
2022/07/19 09:13:14;;;;;;;;;;;29.90;60.10;;;;;;5087297;28;19924;-58
2022/07/19 09:15:43;;;;;;;;;;;30.00;59.80;;;;;;5099702;28;19924;-58
2022/07/19 09:18:11;;;;;;;;;;;30.20;58.70;;;;;;5072504;28;19936;-58
2022/07/19 09:20:38;;;;;;;;;;;30.30;58.90;;;;;;5085549;28;19924;-58
2022/07/19 09:23:06;;;;;;;;;;;30.40;57.80;;;;;;5071868;28;19925;-58
2022/07/19 09:25:38;;;;;;;;;;;30.50;58.50;;;;;;5087379;28;19928;-58
2022/07/19 09:28:07;;;;;;;;;;;30.60;57.60;;;;;;5075008;28;20295;-58
2022/07/19 09:30:37;;;;;;;;;;;30.60;57.70;;;;;;5073614;28;20371;-58
2022/07/19 09:33:14;;;;;;;;;;;30.70;56.80;;;;;;5078940;28;19935;-58
2022/07/19 09:35:53;;;;;;;;;;;30.80;56.50;;;;;;5076675;28;19924;-57
2022/07/19 09:38:22;;;;;;;;;;;31.00;56.60;;;;;;5080591;28;19925;-58
2022/07/19 09:40:50;;;;;;;;;;;31.00;56.30;;;;;;5074362;28;19928;-59
2022/07/19 09:43:19;;;;;;;;;;;31.20;56.30;;;;;;5080044;28;19931;-58
2022/07/19 09:46:26;;;;;;;;;;;31.30;56.30;;;;;;5071336;28;19924;-58
2022/07/19 09:48:53;;;;;;;;;;;31.50;55.60;;;;;;5072552;28;19956;-58
2022/07/19 09:51:21;;;;;;;;;;;31.60;56.10;;;;;;5077272;28;19927;-57
2022/07/19 09:53:49;;;;;;;;;;;31.70;54.80;;;;;;5088087;28;19933;-57
2022/07/19 09:56:16;;;;;;;;;;;31.70;54.60;;;;;;5070072;28;19925;-58
2022/07/19 09:58:44;;;;;;;;;;;31.80;54.90;;;;;;5082350;28;20383;-58
2022/07/19 10:01:13;;;;;;;;;;;31.80;55.70;;;;;;5086950;28;20372;-56
2022/07/19 10:03:41;;;;;;;;;;;31.90;55.00;;;;;;5082747;28;19928;-57
2022/07/19 10:06:09;;;;;;;;;;;32.00;55.00;;;;;;5087550;28;19925;-58
2022/07/19 10:08:36;;;;;;;;;;;32.20;55.40;;;;;;5075141;28;19939;-58
2022/07/19 10:11:04;;;;;;;;;;;32.20;55.10;;;;;;5068831;28;19929;-57
2022/07/19 10:13:32;;;;;;;;;;;32.30;55.10;;;;;;5073138;28;19925;-56
2022/07/19 10:16:02;;;;;;;;;;;32.40;54.90;;;;;;5070270;28;19924;-58
2022/07/19 10:18:37;;;;;;;;;;;32.50;54.90;;;;;;5070283;28;19924;-58
2022/07/19 10:21:04;;;;;;;;;;;32.60;54.50;;;;;;5079985;28;20272;-57
2022/07/19 10:23:33;;;;;;;;;;;32.70;53.70;;;;;;5078411;28;19939;-56
2022/07/19 10:26:01;;;;;;;;;;;32.80;53.90;;;;;;5073579;28;19931;-57
2022/07/19 10:28:29;;;;;;;;;;;32.90;53.50;;;;;;5080860;28;19925;-57
2022/07/19 10:31:26;;;;;;;;;;;33.10;53.50;;;;;;5086668;28;19943;-57
2022/07/19 10:34:01;;;;;;;;;;;33.20;53.10;;;;;;5089787;28;19932;-58
2022/07/19 10:36:39;;;;;;;;;;;33.30;52.00;;;;;;5070866;28;19924;-57
2022/07/19 10:39:20;;;;;;;;;;;33.40;51.90;;;;;;5082782;28;21045;-56
2022/07/19 10:42:03;;;;;;;;;;;33.50;51.10;;;;;;5069960;28;19990;-56
2022/07/19 10:44:31;;;;;;;;;;;33.60;51.10;;;;;;5077123;28;20380;-56
2022/07/19 10:47:00;;;;;;;;;;;33.80;50.80;;;;;;5071983;28;19932;-57
2022/07/19 10:49:47;;;;;;;;;;;34.00;50.40;;;;;;5071634;28;20303;-58
2022/07/19 10:52:27;;;;;;;;;;;34.10;50.40;;;;;;5076850;28;19959;-56
2022/07/19 10:55:14;;;;;;;;;;;34.30;50.10;;;;;;5084043;28;19924;-57
2022/07/19 10:57:42;;;;;;;;;;;34.50;50.70;;;;;;5074514;28;19924;-57
2022/07/19 11:00:15;;;;;;;;;;;34.70;49.80;;;;;;5083170;28;19924;-57
2022/07/19 11:02:43;;;;;;;;;;;34.80;50.00;;;;;;5074476;28;19935;-56
2022/07/19 11:05:21;;;;;;;;;;;35.00;49.60;;;;;;5081535;28;19936;-56
2022/07/19 11:07:50;;;;;;;;;;;35.00;49.20;;;;;;5071027;28;19924;-56
2022/07/19 11:10:28;;;;;;;;;;;35.10;49.10;;;;;;5071152;28;19925;-56
2022/07/19 11:12:56;;;;;;;;;;;35.20;48.70;;;;;;5080663;28;19927;-56
2022/07/19 11:15:27;;;;;;;;;;;35.30;48.60;;;;;;5100767;28;19931;-56
2022/07/19 11:18:03;;;;;;;;;;;35.40;49.10;;;;;;5074975;28;19932;-56
2022/07/19 11:20:35;;;;;;;;;;;35.50;48.90;;;;;;5076310;28;20303;-57
2022/07/19 11:23:04;;;;;;;;;;;35.60;48.90;;;;;;5083892;28;19930;-57
2022/07/19 11:25:41;;;;;;;;;;;35.80;47.60;;;;;;5083196;28;20207;-56
2022/07/19 11:28:21;;;;;;;;;;;35.90;47.30;;;;;;5069823;28;19925;-57
2022/07/19 11:30:49;;;;;;;;;;;36.00;47.90;;;;;;5077984;28;19924;-56
2022/07/19 11:33:18;;;;;;;;;;;36.10;47.00;;;;;;5090090;28;19924;-56
2022/07/19 11:35:56;;;;;;;;;;;36.30;47.70;;;;;;5082695;28;19924;-56
2022/07/19 11:38:23;;;;;;;;;;;36.40;47.60;;;;;;5085610;28;20674;-56
2022/07/19 11:40:51;;;;;;;;;;;36.60;47.00;;;;;;5081198;28;19928;-57
2022/07/19 11:43:21;;;;;;;;;;;36.70;46.60;;;;;;5070429;28;19939;-56
2022/07/19 11:45:49;;;;;;;;;;;36.90;46.40;;;;;;5066853;28;19928;-57
2022/07/19 11:48:27;;;;;;;;;;;36.90;45.50;;;;;;5079749;28;19931;-57
2022/07/19 11:50:59;;;;;;;;;;;37.10;45.20;;;;;;5074132;28;19928;-59
2022/07/19 11:53:27;;;;;;;;;;;37.20;45.00;;;;;;5067959;28;19932;-59
2022/07/19 11:55:55;;;;;;;;;;;37.30;45.00;;;;;;5072272;28;19924;-59
2022/07/19 11:58:23;;;;;;;;;;;37.50;45.00;;;;;;5072404;28;21689;-59
2022/07/19 12:00:51;;;;;;;;;;;37.70;44.70;;;;;;5069412;28;19928;-59
2022/07/19 12:03:19;;;;;;;;;;;37.80;44.60;;;;;;5069641;28;19925;-60
2022/07/19 12:05:57;;;;;;;;;;;38.00;44.00;;;;;;5065283;28;20092;-59
2022/07/19 12:08:34;;;;;;;;;;;38.00;43.90;;;;;;5071865;28;19928;-59
2022/07/19 12:11:14;;;;;;;;;;;38.20;44.10;;;;;;5071066;28;19924;-59
2022/07/19 12:13:42;;;;;;;;;;;38.30;44.20;;;;;;5066979;28;19931;-58
2022/07/19 12:16:15;;;;;;;;;;;38.50;44.00;;;;;;5071791;28;20330;-60
2022/07/19 12:18:43;;;;;;;;;;;38.60;43.70;;;;;;5075538;28;19928;-60
2022/07/19 12:21:19;;;;;;;;;;;38.80;43.00;;;;;;5069081;28;19924;-58
2022/07/19 12:24:04;;;;;;;;;;;39.00;43.60;;;;;;5080076;28;19962;-58
2022/07/19 12:26:32;;;;;;;;;;;39.20;42.60;;;;;;5069479;28;19932;-58
2022/07/19 12:29:39;;;;;;;;;;;39.40;43.00;;;;;;5066068;28;19928;-59
2022/07/19 12:32:08;;;;;;;;;;;39.50;42.50;;;;;;5066598;28;19986;-58
2022/07/19 12:34:41;;;;;;;;;;;39.70;41.70;;;;;;5084035;28;20375;-60
2022/07/19 12:37:18;;;;;;;;;;;39.80;42.20;;;;;;5068644;28;20059;-60
2022/07/19 12:39:59;;;;;;;;;;;40.00;41.10;;;;;;5070264;28;19932;-56
2022/07/19 12:42:35;;;;;;;;;;;40.10;40.90;;;;;;5079518;28;19928;-59
2022/07/19 12:45:05;;;;;;;;;;;40.10;40.90;;;;;;5081388;28;19932;-61
2022/07/19 12:47:32;;;;;;;;;;;40.20;41.30;;;;;;5072820;28;20371;-59
2022/07/19 12:50:04;;;;;;;;;;;40.40;41.00;;;;;;5076940;28;19947;-59
2022/07/19 12:52:38;;;;;;;;;;;40.50;40.00;;;;;;5083066;28;19924;-61
2022/07/19 12:55:07;;;;;;;;;;;40.50;40.20;;;;;;5088001;28;19932;-60
2022/07/19 12:57:41;;;;;;;;;;;40.60;40.20;;;;;;5102796;28;20533;-57
2022/07/19 13:00:09;;;;;;;;;;;40.60;40.60;;;;;;5078448;28;19929;-60
2022/07/19 13:02:36;;;;;;;;;;;40.70;41.70;;;;;;5086415;28;19929;-57
2022/07/19 13:05:04;;;;;;;;;;;40.80;42.00;;;;;;5094007;28;19928;-56
2022/07/19 13:07:32;;;;;;;;;;;41.10;42.30;;;;;;5078907;28;19924;-56
2022/07/19 13:09:59;;;;;;;;;;;41.30;42.10;;;;;;5076914;28;20299;-58
2022/07/19 13:12:27;;;;;;;;;;;41.30;42.10;;;;;;5073275;28;19935;-56
2022/07/19 13:14:55;;;;;;;;;;;41.50;42.60;;;;;;5072212;28;19925;-55
2022/07/19 13:17:22;;;;;;;;;;;41.60;42.40;;;;;;5071025;28;19924;-56
2022/07/19 13:19:50;;;;;;;;;;;41.50;42.70;;;;;;5077375;28;19924;-56
2022/07/19 13:22:18;;;;;;;;;;;41.30;42.10;;;;;;5085001;28;19932;-56
2022/07/19 13:24:45;;;;;;;;;;;41.00;43.70;;;;;;5087521;28;19928;-56
2022/07/19 13:27:33;;;;;;;;;;;40.60;44.80;;;;;;5080561;28;19932;-56
2022/07/19 13:30:00;;;;;;;;;;;40.10;45.90;;;;;;5076427;28;19924;-56
2022/07/19 13:32:28;;;;;;;;;;;39.60;46.90;;;;;;5081652;28;19925;-57
2022/07/19 13:34:57;;;;;;;;;;;39.20;47.70;;;;;;5078459;28;20362;-56
2022/07/19 13:37:25;;;;;;;;;;;39.10;48.30;;;;;;5076242;28;19924;-59
2022/07/19 13:39:53;;;;;;;;;;;39.30;48.20;;;;;;5079718;28;19925;-58
2022/07/19 13:42:20;;;;;;;;;;;39.30;48.10;;;;;;5070038;28;20386;-59
2022/07/19 13:44:48;;;;;;;;;;;39.20;48.10;;;;;;5084017;28;20368;-57
2022/07/19 13:47:15;;;;;;;;;;;38.90;48.30;;;;;;5091265;28;20501;-58
2022/07/19 13:49:43;;;;;;;;;;;38.40;48.40;;;;;;5088636;28;19935;-57
2022/07/19 13:52:10;;;;;;;;;;;38.20;48.70;;;;;;5086797;28;19931;-56
2022/07/19 13:54:39;;;;;;;;;;;38.10;48.60;;;;;;5099668;28;20002;-56
2022/07/19 13:57:07;;;;;;;;;;;38.20;48.40;;;;;;5068724;28;20425;-59
2022/07/19 13:59:34;;;;;;;;;;;38.30;48.00;;;;;;5086654;28;19932;-58
2022/07/19 14:02:02;;;;;;;;;;;38.50;47.80;;;;;;5078938;28;19924;-58
2022/07/19 14:04:30;;;;;;;;;;;38.50;47.60;;;;;;5084879;28;19932;-59
2022/07/19 14:06:58;;;;;;;;;;;38.50;47.50;;;;;;5077986;28;20415;-59
2022/07/19 14:09:27;;;;;;;;;;;38.50;46.90;;;;;;5091257;28;20380;-59
2022/07/19 14:11:54;;;;;;;;;;;38.40;47.00;;;;;;5070994;28;19924;-59
2022/07/19 14:14:22;;;;;;;;;;;38.50;47.40;;;;;;5087615;28;19924;-57
2022/07/19 14:16:49;;;;;;;;;;;38.60;47.30;;;;;;5078842;28;19939;-60
2022/07/19 14:19:17;;;;;;;;;;;38.70;47.70;;;;;;5107378;28;20382;-59
2022/07/19 14:21:45;;;;;;;;;;;38.80;46.00;;;;;;5092530;28;19930;-59
2022/07/19 14:24:12;;;;;;;;;;;38.80;46.20;;;;;;5085563;28;19938;-60
2022/07/19 14:26:39;;;;;;;;;;;38.80;46.40;;;;;;5072772;28;19939;-59
2022/07/19 14:29:07;;;;;;;;;;;38.90;45.90;;;;;;5081071;28;20522;-60
2022/07/19 14:31:35;;;;;;;;;;;39.00;45.80;;;;;;5077510;28;19928;-59